Time;durP1;ratioP1;P1;durP2;ratioP2;P2;SDS_P1;SDS_P2;PMS_P1;PMS_P2;Temp;Humidity;BMP_temperature;BMP_pressure;BME280_temperature;BME280_humidity;BME280_pressure;Samples;Min_cycle;Max_cycle;Signal;HPM_P1;HPM_P2
2021/05/29 00:01:01;;;;;;;26.98;7.15;;;;;;;;;;5010499;28;20042;-76
2021/05/29 00:04:05;;;;;;;20.50;8.13;;;;;;;;;;5011607;28;20042;-74
2021/05/29 00:07:10;;;;;;;18.95;7.15;;;;;;;;;;5011126;28;20049;-75
2021/05/29 00:10:14;;;;;;;15.45;6.75;;;;;;;;;;5011304;28;20057;-74
2021/05/29 00:13:19;;;;;;;20.27;7.95;;;;;;;;;;5011026;28;20425;-75
2021/05/29 00:16:23;;;;;;;27.08;7.47;;;;;;;;;;5011130;28;20045;-75
2021/05/29 00:19:28;;;;;;;20.80;7.65;;;;;;;;;;5011181;28;20418;-74
2021/05/29 00:22:32;;;;;;;26.38;9.13;;;;;;;;;;5011388;28;20030;-75
2021/05/29 00:25:38;;;;;;;23.80;7.57;;;;;;;;;;5010995;28;20041;-75
2021/05/29 00:28:42;;;;;;;22.80;7.60;;;;;;;;;;5011339;28;20417;-75
2021/05/29 00:31:47;;;;;;;19.75;7.95;;;;;;;;;;5010480;28;20056;-76
2021/05/29 00:34:51;;;;;;;21.20;7.03;;;;;;;;;;5012382;28;20033;-74
2021/05/29 00:37:55;;;;;;;19.67;7.53;;;;;;;;;;5015380;28;20046;-74
2021/05/29 00:41:03;;;;;;;27.60;8.35;;;;;;;;;;5015219;28;20049;-74
2021/05/29 00:44:07;;;;;;;22.05;7.47;;;;;;;;;;5015055;28;20433;-74
2021/05/29 00:47:11;;;;;;;19.83;8.40;;;;;;;;;;5015078;28;20044;-76
2021/05/29 00:50:16;;;;;;;18.92;6.70;;;;;;;;;;5014894;28;20401;-77
2021/05/29 00:53:20;;;;;;;19.75;7.43;;;;;;;;;;5014255;28;20413;-74
2021/05/29 00:56:25;;;;;;;21.52;6.95;;;;;;;;;;5014815;28;20057;-74
2021/05/29 00:59:29;;;;;;;27.80;8.05;;;;;;;;;;5015027;28;20060;-74
2021/05/29 01:02:34;;;;;;;13.57;6.53;;;;;;;;;;5014960;28;20030;-74
2021/05/29 01:05:38;;;;;;;20.95;6.70;;;;;;;;;;5014498;28;20042;-76
2021/05/29 01:08:43;;;;;;;16.48;6.68;;;;;;;;;;5014830;28;20041;-75
2021/05/29 01:11:48;;;;;;;23.80;6.90;;;;;;;;;;5013766;28;20041;-76
2021/05/29 01:14:55;;;;;;;17.42;7.45;;;;;;;;;;5014557;28;20057;-75
2021/05/29 01:17:59;;;;;;;20.00;7.05;;;;;;;;;;5014060;28;20049;-75
2021/05/29 01:21:05;;;;;;;25.02;7.20;;;;;;;;;;5014176;28;20045;-75
2021/05/29 01:24:09;;;;;;;29.65;8.60;;;;;;;;;;5013304;28;20042;-75
2021/05/29 01:27:15;;;;;;;24.10;7.70;;;;;;;;;;5014248;28;20047;-75
2021/05/29 01:30:19;;;;;;;13.40;7.20;;;;;;;;;;5014162;28;20393;-74
2021/05/29 01:33:25;;;;;;;25.25;7.45;;;;;;;;;;5013913;28;20056;-75
2021/05/29 01:36:29;;;;;;;17.02;6.75;;;;;;;;;;5014311;28;20034;-75
2021/05/29 01:39:34;;;;;;;22.35;7.03;;;;;;;;;;5013713;28;20053;-74
2021/05/29 01:42:39;;;;;;;13.38;7.05;;;;;;;;;;5014090;28;20045;-74
2021/05/29 01:45:44;;;;;;;19.65;6.30;;;;;;;;;;5013574;28;20045;-74
2021/05/29 01:48:50;;;;;;;19.35;8.07;;;;;;;;;;5013730;28;20038;-75
2021/05/29 01:51:54;;;;;;;18.80;6.82;;;;;;;;;;5013817;28;20049;-75
2021/05/29 01:54:48;;;;;;;17.88;6.80;;;;;;;;;;5015526;28;20033;-73
2021/05/29 01:57:53;;;;;;;22.63;7.32;;;;;;;;;;5014056;28;20429;-75
2021/05/29 02:00:58;;;;;;;19.17;6.93;;;;;;;;;;5013823;28;20056;-75
2021/05/29 02:04:03;;;;;;;16.75;7.70;;;;;;;;;;5013793;28;20057;-74
2021/05/29 02:07:07;;;;;;;23.42;7.60;;;;;;;;;;5013765;28;20362;-74
2021/05/29 02:10:13;;;;;;;20.10;7.90;;;;;;;;;;5013773;28;20499;-75
2021/05/29 02:13:25;;;;;;;19.38;7.88;;;;;;;;;;5012673;28;20042;-76
2021/05/29 02:16:29;;;;;;;17.85;7.45;;;;;;;;;;5012891;28;20497;-75
2021/05/29 02:19:34;;;;;;;23.42;8.25;;;;;;;;;;5013144;28;20049;-74
2021/05/29 02:22:38;;;;;;;20.83;7.55;;;;;;;;;;5013552;28;20038;-74
2021/05/29 02:25:43;;;;;;;20.45;7.72;;;;;;;;;;5012619;28;20041;-75
2021/05/29 02:28:50;;;;;;;18.60;7.03;;;;;;;;;;5013830;28;20385;-74
2021/05/29 02:31:55;;;;;;;14.50;7.28;;;;;;;;;;5014008;28;20033;-74
2021/05/29 02:34:59;;;;;;;17.88;7.10;;;;;;;;;;5013199;28;20048;-74
2021/05/29 02:38:04;;;;;;;24.77;7.05;;;;;;;;;;5012518;28;20033;-74
2021/05/29 02:41:10;;;;;;;19.58;7.28;;;;;;;;;;5013301;28;20037;-74
2021/05/29 02:44:14;;;;;;;16.58;6.55;;;;;;;;;;5013244;28;20038;-75
2021/05/29 02:47:18;;;;;;;19.35;7.45;;;;;;;;;;5013150;28;20044;-75
2021/05/29 02:50:23;;;;;;;16.75;6.75;;;;;;;;;;5012956;28;20045;-75
2021/05/29 02:53:28;;;;;;;15.23;6.60;;;;;;;;;;5013011;28;20045;-74
2021/05/29 02:56:33;;;;;;;16.08;6.45;;;;;;;;;;5012626;28;20393;-74
2021/05/29 02:59:38;;;;;;;18.65;7.30;;;;;;;;;;5012560;28;20042;-75
2021/05/29 03:02:25;;;;;;;16.85;7.25;;;;;;;;;;5017148;28;20037;-75
2021/05/29 03:05:29;;;;;;;19.55;7.75;;;;;;;;;;5012496;28;20049;-74
2021/05/29 03:08:34;;;;;;;17.63;6.90;;;;;;;;;;5012713;28;20071;-74
2021/05/29 03:11:42;;;;;;;14.90;6.70;;;;;;;;;;5012620;28;20037;-73
2021/05/29 03:14:47;;;;;;;17.60;6.65;;;;;;;;;;5012277;28;20070;-74
2021/05/29 03:17:52;;;;;;;18.33;7.15;;;;;;;;;;5012081;28;20041;-74
2021/05/29 03:20:57;;;;;;;23.05;9.50;;;;;;;;;;5012525;28;20042;-73
2021/05/29 03:24:02;;;;;;;23.83;8.88;;;;;;;;;;5011817;28;20030;-74
2021/05/29 03:27:07;;;;;;;18.80;8.60;;;;;;;;;;5011866;28;20066;-75
2021/05/29 03:30:12;;;;;;;22.05;8.27;;;;;;;;;;5012398;28;20486;-75
2021/05/29 03:33:16;;;;;;;19.48;9.10;;;;;;;;;;5011338;28;20049;-75
2021/05/29 03:36:21;;;;;;;18.83;8.55;;;;;;;;;;5012085;28;20393;-75
2021/05/29 03:39:25;;;;;;;19.85;8.32;;;;;;;;;;5011157;28;20037;-73
2021/05/29 03:42:30;;;;;;;29.55;8.38;;;;;;;;;;5012212;28;20036;-75
2021/05/29 03:45:35;;;;;;;22.80;8.82;;;;;;;;;;5011886;28;20037;-75
2021/05/29 03:48:39;;;;;;;27.23;7.90;;;;;;;;;;5012058;28;20068;-75
2021/05/29 03:51:44;;;;;;;19.20;8.48;;;;;;;;;;5012186;28;20038;-75
2021/05/29 03:54:48;;;;;;;23.83;9.10;;;;;;;;;;5011997;28;20041;-75
2021/05/29 03:57:53;;;;;;;18.05;9.20;;;;;;;;;;5010834;28;20041;-75
2021/05/29 04:00:58;;;;;;;18.08;9.32;;;;;;;;;;5011914;28;20092;-74
2021/05/29 04:04:02;;;;;;;24.73;9.98;;;;;;;;;;5011787;28;20049;-75
2021/05/29 04:07:06;;;;;;;18.20;9.15;;;;;;;;;;5011712;28;20034;-74
2021/05/29 04:10:12;;;;;;;27.73;9.20;;;;;;;;;;5010922;28;20443;-75
2021/05/29 04:13:16;;;;;;;25.38;10.10;;;;;;;;;;5011364;28;20042;-73
2021/05/29 04:16:21;;;;;;;20.35;9.35;;;;;;;;;;5011116;28;20180;-74
2021/05/29 04:19:26;;;;;;;17.58;8.32;;;;;;;;;;5010714;28;20053;-74
2021/05/29 04:22:30;;;;;;;18.67;8.57;;;;;;;;;;5011482;28;20362;-74
2021/05/29 04:25:34;;;;;;;15.65;8.77;;;;;;;;;;5011424;28;20502;-75
2021/05/29 04:28:39;;;;;;;28.60;10.05;;;;;;;;;;5011591;28;20042;-79
2021/05/29 04:31:43;;;;;;;21.08;8.55;;;;;;;;;;5011524;28;20041;-75
2021/05/29 04:34:48;;;;;;;20.73;8.70;;;;;;;;;;5011223;28;20053;-75
2021/05/29 04:37:52;;;;;;;19.48;9.13;;;;;;;;;;5011158;28;20489;-75
2021/05/29 04:40:57;;;;;;;17.02;10.20;;;;;;;;;;5011194;28;20050;-75
2021/05/29 04:44:01;;;;;;;17.23;8.38;;;;;;;;;;5010971;28;20381;-75
2021/05/29 04:47:06;;;;;;;19.50;8.82;;;;;;;;;;5011083;28;20042;-75
2021/05/29 04:50:11;;;;;;;20.90;9.90;;;;;;;;;;5010683;28;20052;-75
2021/05/29 04:53:16;;;;;;;20.73;9.52;;;;;;;;;;5011055;28;20033;-75
2021/05/29 04:56:20;;;;;;;20.20;9.25;;;;;;;;;;5011614;28;20059;-75
2021/05/29 04:59:24;;;;;;;30.38;11.65;;;;;;;;;;5011108;28;20513;-79
2021/05/29 05:02:29;;;;;;;28.40;13.55;;;;;;;;;;5011049;28;20089;-74
2021/05/29 05:05:34;;;;;;;44.58;13.60;;;;;;;;;;5011117;28;20044;-75
2021/05/29 05:08:38;;;;;;;22.38;11.57;;;;;;;;;;5011396;28;20053;-74
2021/05/29 05:11:43;;;;;;;28.73;11.80;;;;;;;;;;5011398;28;20045;-74
2021/05/29 05:14:47;;;;;;;28.90;11.07;;;;;;;;;;5010708;28;20053;-75
2021/05/29 05:17:52;;;;;;;23.83;11.02;;;;;;;;;;5010052;28;20413;-75
2021/05/29 05:20:59;;;;;;;22.75;9.90;;;;;;;;;;5011174;28;20057;-75
2021/05/29 05:24:04;;;;;;;67.15;12.77;;;;;;;;;;5013718;28;20038;-76
2021/05/29 05:27:08;;;;;;;66.40;11.23;;;;;;;;;;5014252;28;20452;-76
2021/05/29 05:30:13;;;;;;;39.83;10.07;;;;;;;;;;5014628;28;20421;-77
2021/05/29 05:33:19;;;;;;;27.15;9.50;;;;;;;;;;5014721;28;20056;-75
2021/05/29 05:36:23;;;;;;;38.70;10.25;;;;;;;;;;5014467;28;20042;-76
2021/05/29 05:39:28;;;;;;;22.10;8.65;;;;;;;;;;5014480;28;20053;-77
2021/05/29 05:42:32;;;;;;;22.08;9.25;;;;;;;;;;5014337;28;20500;-76
2021/05/29 05:45:37;;;;;;;22.40;8.07;;;;;;;;;;5013493;28;20042;-74
2021/05/29 05:48:41;;;;;;;23.48;8.38;;;;;;;;;;5014136;28;20045;-73
2021/05/29 05:51:45;;;;;;;16.10;7.60;;;;;;;;;;5014238;28;20046;-73
2021/05/29 05:54:50;;;;;;;27.83;8.13;;;;;;;;;;5013667;28;20029;-73
2021/05/29 05:57:55;;;;;;;19.17;7.60;;;;;;;;;;5013951;28;20049;-73
2021/05/29 06:00:59;;;;;;;16.30;7.30;;;;;;;;;;5013447;28;20433;-67
2021/05/29 06:04:05;;;;;;;17.02;7.00;;;;;;;;;;5013591;28;20069;-68
2021/05/29 06:07:09;;;;;;;16.20;6.25;;;;;;;;;;5013437;28;20042;-66
2021/05/29 06:10:14;;;;;;;27.60;8.43;;;;;;;;;;5012486;28;20038;-67
2021/05/29 06:20:05;;;;;;;20.23;6.85;;;;;;;;;;5012226;28;20547;-67
2021/05/29 06:23:12;;;;;;;19.00;6.70;;;;;;;;;;5013377;28;20044;-66
2021/05/29 06:26:16;;;;;;;19.35;6.68;;;;;;;;;;5013392;28;20053;-67
2021/05/29 06:29:21;;;;;;;19.38;6.82;;;;;;;;;;5013174;28;20038;-66
2021/05/29 06:32:25;;;;;;;20.10;5.40;;;;;;;;;;5012904;28;20051;-67
2021/05/29 06:35:29;;;;;;;25.10;5.82;;;;;;;;;;5011756;28;20038;-67
2021/05/29 06:38:34;;;;;;;16.65;6.40;;;;;;;;;;5012972;28;20038;-65
2021/05/29 06:41:40;;;;;;;25.20;5.72;;;;;;;;;;5012743;28;20053;-66
2021/05/29 06:44:44;;;;;;;25.80;5.57;;;;;;;;;;5012217;28;20044;-66
2021/05/29 06:47:49;;;;;;;74.05;10.10;;;;;;;;;;5012593;28;20508;-66
2021/05/29 06:50:55;;;;;;;27.45;6.18;;;;;;;;;;5012554;28;20053;-67
2021/05/29 06:54:04;;;;;;;14.80;5.40;;;;;;;;;;5012448;28;20038;-66
2021/05/29 07:00:31;;;;;;;17.75;5.05;;;;;;;;;;5012271;28;20411;-66
2021/05/29 07:03:35;;;;;;;14.68;5.00;;;;;;;;;;5012150;28;20042;-67
2021/05/29 07:06:40;;;;;;;17.73;5.38;;;;;;;;;;5011987;28;20049;-67
2021/05/29 07:09:44;;;;;;;15.65;4.95;;;;;;;;;;5012290;28;20061;-66
2021/05/29 07:12:48;;;;;;;12.65;4.50;;;;;;;;;;5011903;28;20054;-68
2021/05/29 07:15:53;;;;;;;13.90;4.57;;;;;;;;;;5011961;28;20046;-65
2021/05/29 07:18:57;;;;;;;9.63;4.15;;;;;;;;;;5012293;28;20512;-71
2021/05/29 07:22:02;;;;;;;12.98;4.30;;;;;;;;;;5012171;28;20045;-67
2021/05/29 07:25:08;;;;;;;15.57;4.90;;;;;;;;;;5012138;28;20381;-67
2021/05/29 07:28:12;;;;;;;17.13;5.03;;;;;;;;;;5011925;28;20485;-68
2021/05/29 07:31:16;;;;;;;18.48;3.70;;;;;;;;;;5011643;28;20042;-68
2021/05/29 07:34:22;;;;;;;11.52;3.35;;;;;;;;;;5011527;28;20061;-67
2021/05/29 07:37:27;;;;;;;9.95;4.00;;;;;;;;;;5011510;28;20204;-69
2021/05/29 07:40:35;;;;;;;12.88;3.40;;;;;;;;;;5010621;28;20050;-66
2021/05/29 07:43:39;;;;;;;15.90;3.80;;;;;;;;;;5012056;28;20038;-67
2021/05/29 07:46:44;;;;;;;11.20;3.03;;;;;;;;;;5011623;28;20508;-66
2021/05/29 07:49:49;;;;;;;9.15;3.08;;;;;;;;;;5011431;28;20052;-67
2021/05/29 07:52:53;;;;;;;11.55;4.20;;;;;;;;;;5011313;28;20430;-66
2021/05/29 07:55:58;;;;;;;11.02;3.53;;;;;;;;;;5011411;28;20034;-67
2021/05/29 07:59:09;;;;;;;14.38;3.60;;;;;;;;;;5011451;28;20105;-67
2021/05/29 08:02:13;;;;;;;15.45;4.18;;;;;;;;;;5011255;28;20038;-68
2021/05/29 08:05:20;;;;;;;14.68;3.65;;;;;;;;;;5010973;28;20391;-67
2021/05/29 08:08:25;;;;;;;9.00;2.80;;;;;;;;;;5011373;28;20049;-68
2021/05/29 08:11:29;;;;;;;10.05;3.50;;;;;;;;;;5011721;28;20033;-67
2021/05/29 08:14:35;;;;;;;16.38;3.63;;;;;;;;;;5011230;28;20044;-66
2021/05/29 08:17:39;;;;;;;16.05;4.28;;;;;;;;;;5010986;28;20061;-66
2021/05/29 08:20:47;;;;;;;13.38;4.03;;;;;;;;;;5010892;28;20054;-67
2021/05/29 08:23:54;;;;;;;11.18;4.07;;;;;;;;;;5011175;28;20045;-67
2021/05/29 08:27:00;;;;;;;15.88;4.20;;;;;;;;;;5010228;28;20042;-68
2021/05/29 08:30:05;;;;;;;12.55;3.60;;;;;;;;;;5011079;28;20045;-67
2021/05/29 08:33:09;;;;;;;7.93;3.70;;;;;;;;;;5011161;28;20045;-68
2021/05/29 08:36:14;;;;;;;12.88;4.00;;;;;;;;;;5010325;28;20037;-67
2021/05/29 08:39:18;;;;;;;21.95;4.65;;;;;;;;;;5010751;28;20074;-67
2021/05/29 08:42:23;;;;;;;12.77;4.00;;;;;;;;;;5011086;28;20061;-68
2021/05/29 08:45:27;;;;;;;11.13;3.55;;;;;;;;;;5010650;28;20037;-67
2021/05/29 08:48:32;;;;;;;11.27;3.60;;;;;;;;;;5010664;28;20046;-67
2021/05/29 08:51:36;;;;;;;17.10;4.63;;;;;;;;;;5010762;28;20057;-67
2021/05/29 08:54:40;;;;;;;11.60;4.90;;;;;;;;;;5010672;28;20046;-67
2021/05/29 08:57:46;;;;;;;13.45;4.50;;;;;;;;;;5014686;28;20049;-67
2021/05/29 09:00:51;;;;;;;14.20;3.65;;;;;;;;;;5014347;28;20511;-67
2021/05/29 09:03:58;;;;;;;11.95;3.90;;;;;;;;;;5013407;28;20057;-67
2021/05/29 09:07:02;;;;;;;10.65;3.20;;;;;;;;;;5014450;28;20513;-67
2021/05/29 09:10:33;;;;;;;12.05;4.28;;;;;;;;;;5014686;28;20036;-66
2021/05/29 09:13:38;;;;;;;11.57;3.20;;;;;;;;;;5014359;28;20045;-67
2021/05/29 09:16:59;;;;;;;11.63;3.83;;;;;;;;;;5013777;28;20045;-66
2021/05/29 09:20:13;;;;;;;10.13;3.80;;;;;;;;;;5014269;28;20053;-67
2021/05/29 09:23:18;;;;;;;7.45;3.50;;;;;;;;;;5014250;28;20489;-67
2021/05/29 09:26:24;;;;;;;15.68;3.35;;;;;;;;;;5013444;28;20033;-66
2021/05/29 09:29:30;;;;;;;6.38;3.08;;;;;;;;;;5014211;28;20038;-67
2021/05/29 09:32:35;;;;;;;9.30;3.10;;;;;;;;;;5014436;28;20045;-67
2021/05/29 09:35:40;;;;;;;12.30;3.55;;;;;;;;;;5013663;28;20073;-66
2021/05/29 09:38:47;;;;;;;7.18;3.30;;;;;;;;;;5014170;28;20048;-67
2021/05/29 09:41:53;;;;;;;9.35;3.17;;;;;;;;;;5012619;28;20046;-67
2021/05/29 09:44:58;;;;;;;7.53;3.15;;;;;;;;;;5013342;28;20042;-67
2021/05/29 09:48:16;;;;;;;11.50;3.72;;;;;;;;;;5014152;28;20050;-67
2021/05/29 09:51:21;;;;;;;7.18;2.72;;;;;;;;;;5013625;28;20038;-67
2021/05/29 09:54:25;;;;;;;9.15;2.97;;;;;;;;;;5013723;28;20041;-66
2021/05/29 09:57:29;;;;;;;12.85;4.32;;;;;;;;;;5013325;28;20034;-67
2021/05/29 10:00:41;;;;;;;12.93;4.40;;;;;;;;;;5012588;28;20152;-67
2021/05/29 10:03:50;;;;;;;10.60;3.80;;;;;;;;;;5012452;28;20041;-68
2021/05/29 10:06:55;;;;;;;20.60;4.63;;;;;;;;;;5012513;28;20417;-67
2021/05/29 10:10:00;;;;;;;10.02;3.50;;;;;;;;;;5013267;28;20165;-67
2021/05/29 10:13:05;;;;;;;17.65;4.50;;;;;;;;;;5013046;28;20041;-67
2021/05/29 10:16:10;;;;;;;17.45;4.50;;;;;;;;;;5012897;28;20042;-67
2021/05/29 10:19:15;;;;;;;13.57;3.97;;;;;;;;;;5012993;28;20060;-67
2021/05/29 10:22:20;;;;;;;35.63;5.30;;;;;;;;;;5012978;28;20037;-67
2021/05/29 10:25:25;;;;;;;16.08;4.40;;;;;;;;;;5012469;28;20037;-67
2021/05/29 10:28:31;;;;;;;14.13;4.25;;;;;;;;;;5013188;28;20034;-67
2021/05/29 10:31:36;;;;;;;13.20;3.80;;;;;;;;;;5012115;28;20053;-67
2021/05/29 10:34:51;;;;;;;13.40;3.65;;;;;;;;;;5012448;28;20049;-67
2021/05/29 10:37:55;;;;;;;14.90;3.80;;;;;;;;;;5011609;28;20052;-67
2021/05/29 10:41:01;;;;;;;13.70;3.70;;;;;;;;;;5012665;28;20053;-67
2021/05/29 10:44:25;;;;;;;16.05;5.20;;;;;;;;;;5012637;28;20038;-67
2021/05/29 10:47:30;;;;;;;14.93;3.60;;;;;;;;;;5011604;28;20030;-67
2021/05/29 10:50:54;;;;;;;22.85;3.95;;;;;;;;;;5012490;28;20045;-67
2021/05/29 10:54:07;;;;;;;12.48;3.25;;;;;;;;;;5012400;28;20034;-67
2021/05/29 10:57:11;;;;;;;13.20;3.20;;;;;;;;;;5012448;28;20038;-67
2021/05/29 11:00:35;;;;;;;11.43;3.67;;;;;;;;;;5012537;28;20058;-67
2021/05/29 11:03:39;;;;;;;19.17;3.60;;;;;;;;;;5011996;28;20042;-67
2021/05/29 11:06:48;;;;;;;10.63;3.17;;;;;;;;;;5012078;28;20508;-67
2021/05/29 11:09:54;;;;;;;10.18;3.75;;;;;;;;;;5011929;28;20045;-67
2021/05/29 11:12:58;;;;;;;8.55;3.13;;;;;;;;;;5011987;28;20049;-67
2021/05/29 11:16:03;;;;;;;24.05;3.90;;;;;;;;;;5011905;28;20390;-67
2021/05/29 11:19:11;;;;;;;11.52;3.85;;;;;;;;;;5011452;28;20397;-68
2021/05/29 11:22:22;;;;;;;10.85;3.08;;;;;;;;;;5011929;28;20061;-67
2021/05/29 11:25:27;;;;;;;;;;;;;;;;;;5015279;28;20040;-67
2021/05/29 11:28:32;;;;;;;14.93;3.13;;;;;;;;;;5012352;28;19916;-67
2021/05/29 11:31:46;;;;;;;11.30;3.38;;;;;;;;;;5012199;28;20051;-67
2021/05/29 11:34:50;;;;;;;9.88;3.55;;;;;;;;;;5012037;28;20048;-67
2021/05/29 11:37:55;;;;;;;26.75;4.55;;;;;;;;;;5011582;28;20466;-66
2021/05/29 11:41:00;;;;;;;13.68;3.10;;;;;;;;;;5011471;28;20081;-67
2021/05/29 11:44:09;;;;;;;13.48;3.17;;;;;;;;;;5011498;28;20499;-68
2021/05/29 11:47:14;;;;;;;11.52;3.53;;;;;;;;;;5011867;28;20143;-67
2021/05/29 11:50:18;;;;;;;7.55;3.10;;;;;;;;;;5011702;28;20033;-66
2021/05/29 11:53:24;;;;;;;8.07;3.47;;;;;;;;;;5011423;28;20143;-68
2021/05/29 11:56:32;;;;;;;8.98;3.35;;;;;;;;;;5011567;28;20408;-68
2021/05/29 11:59:37;;;;;;;23.30;4.03;;;;;;;;;;5011617;28;20037;-67
2021/05/29 12:02:49;;;;;;;10.43;3.33;;;;;;;;;;5011462;28;20049;-67
2021/05/29 12:05:53;;;;;;;14.23;3.55;;;;;;;;;;5011462;28;20041;-67
2021/05/29 12:08:58;;;;;;;14.75;5.00;;;;;;;;;;5011140;28;20049;-67
2021/05/29 12:12:04;;;;;;;8.60;3.00;;;;;;;;;;5011194;28;20045;-69
2021/05/29 12:15:12;;;;;;;12.77;3.25;;;;;;;;;;5010760;28;20042;-66
2021/05/29 12:18:17;;;;;;;9.95;3.25;;;;;;;;;;5011483;28;20065;-67
2021/05/29 12:21:21;;;;;;;12.27;3.03;;;;;;;;;;5011243;28;20049;-68
2021/05/29 12:24:27;;;;;;;12.88;3.38;;;;;;;;;;5011081;28;20034;-66
2021/05/29 12:27:32;;;;;;;18.63;3.40;;;;;;;;;;5011350;28;20037;-67
2021/05/29 12:30:37;;;;;;;7.47;2.63;;;;;;;;;;5010750;28;20038;-67
2021/05/29 12:33:41;;;;;;;8.45;2.65;;;;;;;;;;5010423;28;20041;-67
2021/05/29 12:37:12;;;;;;;13.13;3.60;;;;;;;;;;5011097;28;20370;-67
2021/05/29 12:40:16;;;;;;;13.07;2.60;;;;;;;;;;5011297;28;20034;-67
2021/05/29 12:43:21;;;;;;;8.30;2.88;;;;;;;;;;5011195;28;20045;-67
2021/05/29 12:46:25;;;;;;;13.88;3.45;;;;;;;;;;5011165;28;20387;-67
2021/05/29 12:49:30;;;;;;;13.23;3.10;;;;;;;;;;5010895;28;20053;-67
2021/05/29 12:52:34;;;;;;;9.73;2.83;;;;;;;;;;5011053;28;20038;-68
2021/05/29 12:55:40;;;;;;;6.18;2.30;;;;;;;;;;5011063;28;20069;-67
2021/05/29 12:59:00;;;;;;;10.48;2.95;;;;;;;;;;5010813;28;20046;-68
2021/05/29 13:02:21;;;;;;;11.40;3.17;;;;;;;;;;5011007;28;20046;-67
2021/05/29 13:09:09;;;;;;;11.95;3.05;;;;;;;;;;5010981;28;20044;-66
2021/05/29 13:12:14;;;;;;;9.63;2.70;;;;;;;;;;5010533;28;20524;-67
2021/05/29 13:15:19;;;;;;;10.82;2.70;;;;;;;;;;5010831;28;20038;-67
2021/05/29 13:18:23;;;;;;;8.20;2.72;;;;;;;;;;5010806;28;20049;-71
2021/05/29 13:21:28;;;;;;;6.20;2.58;;;;;;;;;;5010464;28;20050;-67
2021/05/29 13:24:39;;;;;;;8.40;2.55;;;;;;;;;;5010363;28;20033;-66
2021/05/29 13:27:54;;;;;;;10.13;3.00;;;;;;;;;;5010812;28;20042;-68
2021/05/29 13:30:58;;;;;;;7.63;3.08;;;;;;;;;;5010763;28;20041;-68
2021/05/29 13:34:02;;;;;;;10.27;3.03;;;;;;;;;;5010401;28;20038;-67
2021/05/29 13:37:07;;;;;;;12.85;2.80;;;;;;;;;;5010472;28;20038;-67
2021/05/29 13:40:13;;;;;;;9.85;2.72;;;;;;;;;;5010514;28;20034;-66
2021/05/29 13:43:18;;;;;;;9.55;3.15;;;;;;;;;;5012113;28;20042;-67
2021/05/29 13:46:22;;;;;;;14.25;4.57;;;;;;;;;;5014082;28;20506;-69
2021/05/29 13:49:27;;;;;;;10.98;3.22;;;;;;;;;;5014065;28;20291;-67
2021/05/29 13:52:31;;;;;;;4.53;2.38;;;;;;;;;;5013494;28;20189;-67
2021/05/29 13:55:36;;;;;;;9.13;2.70;;;;;;;;;;5013919;28;20038;-67
2021/05/29 13:58:40;;;;;;;9.82;3.00;;;;;;;;;;5013788;28;20042;-67
2021/05/29 14:01:45;;;;;;;9.30;3.33;;;;;;;;;;5013547;28;20046;-66
2021/05/29 14:04:49;;;;;;;11.10;2.92;;;;;;;;;;5013494;28;20038;-67
2021/05/29 14:07:53;;;;;;;17.00;3.30;;;;;;;;;;5013758;28;20058;-67
2021/05/29 14:11:00;;;;;;;6.38;2.50;;;;;;;;;;5013596;28;20473;-67
2021/05/29 14:14:05;;;;;;;6.97;2.83;;;;;;;;;;5013197;28;20042;-67
2021/05/29 14:17:09;;;;;;;12.18;2.92;;;;;;;;;;5013568;28;20050;-67
2021/05/29 14:20:13;;;;;;;7.82;2.63;;;;;;;;;;5013131;28;20041;-66
2021/05/29 14:23:18;;;;;;;4.95;2.25;;;;;;;;;;5013151;28;20065;-67
2021/05/29 14:26:24;;;;;;;11.75;3.05;;;;;;;;;;5013244;28;20038;-67
2021/05/29 14:29:28;;;;;;;22.75;3.20;;;;;;;;;;5013072;28;20197;-67
2021/05/29 14:32:33;;;;;;;15.70;2.55;;;;;;;;;;5012818;28;20034;-67
2021/05/29 14:35:40;;;;;;;12.98;2.80;;;;;;;;;;5012827;28;20046;-67
2021/05/29 14:38:45;;;;;;;8.93;2.72;;;;;;;;;;5013089;28;20046;-67
2021/05/29 14:41:50;;;;;;;7.60;2.85;;;;;;;;;;5012887;28;20221;-67
2021/05/29 14:44:54;;;;;;;6.03;2.30;;;;;;;;;;5013123;28;20045;-66
2021/05/29 14:47:58;;;;;;;9.15;2.67;;;;;;;;;;5011991;28;20042;-65
2021/05/29 14:51:19;;;;;;;11.40;2.80;;;;;;;;;;5012582;28;20391;-67
2021/05/29 14:54:25;;;;;;;6.75;2.33;;;;;;;;;;5011903;28;20038;-71
2021/05/29 14:57:30;;;;;;;10.35;2.67;;;;;;;;;;5012434;28;20038;-66
2021/05/29 15:00:34;;;;;;;14.68;3.13;;;;;;;;;;5011835;28;20046;-67
2021/05/29 15:03:40;;;;;;;9.10;2.67;;;;;;;;;;5011811;28;20044;-66
2021/05/29 15:06:44;;;;;;;7.47;2.80;;;;;;;;;;5012539;28;20284;-66
2021/05/29 15:09:48;;;;;;;9.07;2.65;;;;;;;;;;5012290;28;20038;-66
2021/05/29 15:12:53;;;;;;;19.15;3.20;;;;;;;;;;5012267;28;20486;-70
2021/05/29 15:15:57;;;;;;;11.25;3.33;;;;;;;;;;5010873;28;20065;-67
2021/05/29 15:19:02;;;;;;;11.73;2.97;;;;;;;;;;5011731;28;20048;-68
2021/05/29 15:22:07;;;;;;;13.73;2.67;;;;;;;;;;5011712;28;20057;-68
2021/05/29 15:25:16;;;;;;;15.15;3.28;;;;;;;;;;5010640;28;20372;-67
2021/05/29 15:28:21;;;;;;;7.82;2.60;;;;;;;;;;5010977;28;20243;-69
2021/05/29 15:31:26;;;;;;;11.98;2.70;;;;;;;;;;5011842;28;20038;-68
2021/05/29 15:34:30;;;;;;;11.85;2.58;;;;;;;;;;5011911;28;20514;-67
2021/05/29 15:37:35;;;;;;;10.02;2.85;;;;;;;;;;5011756;28;20041;-67
2021/05/29 15:40:40;;;;;;;8.95;2.30;;;;;;;;;;5009906;28;20057;-65
2021/05/29 15:43:44;;;;;;;9.95;2.58;;;;;;;;;;5011327;28;20057;-68
2021/05/29 15:46:48;;;;;;;12.15;2.80;;;;;;;;;;5011802;28;20481;-68
2021/05/29 15:49:54;;;;;;;9.60;2.95;;;;;;;;;;5011495;28;20033;-67
2021/05/29 15:52:59;;;;;;;10.82;2.45;;;;;;;;;;5011277;28;20034;-67
2021/05/29 15:56:04;;;;;;;7.65;2.63;;;;;;;;;;5011262;28;20046;-67
2021/05/29 15:59:14;;;;;;;11.02;2.90;;;;;;;;;;5011439;28;20045;-68
2021/05/29 16:02:18;;;;;;;15.75;3.50;;;;;;;;;;5011153;28;20053;-67
2021/05/29 16:05:23;;;;;;;17.98;4.53;;;;;;;;;;5009859;28;20188;-66
2021/05/29 16:08:28;;;;;;;19.55;7.00;;;;;;;;;;5011186;28;20065;-67
2021/05/29 16:11:33;;;;;;;9.13;2.65;;;;;;;;;;5010277;28;20375;-66
2021/05/29 16:14:37;;;;;;;12.20;3.22;;;;;;;;;;5010424;28;20041;-67
2021/05/29 16:17:41;;;;;;;8.13;2.63;;;;;;;;;;5010839;28;20593;-66
2021/05/29 16:20:46;;;;;;;12.68;3.25;;;;;;;;;;5010910;28;20041;-67
2021/05/29 16:23:53;;;;;;;6.60;2.35;;;;;;;;;;5011106;28;20041;-69
2021/05/29 16:26:57;;;;;;;10.75;3.00;;;;;;;;;;5010931;28;20026;-66
2021/05/29 16:30:01;;;;;;;20.42;3.15;;;;;;;;;;5011222;28;20192;-66
2021/05/29 16:33:08;;;;;;;17.02;3.45;;;;;;;;;;5010288;28;20134;-67
2021/05/29 16:36:13;;;;;;;14.93;2.95;;;;;;;;;;5010887;28;20042;-67
2021/05/29 16:39:18;;;;;;;12.52;2.72;;;;;;;;;;5009956;28;20054;-65
2021/05/29 16:42:23;;;;;;;17.15;3.58;;;;;;;;;;5009984;28;20049;-67
2021/05/29 16:45:29;;;;;;;29.13;3.67;;;;;;;;;;5010218;28;20049;-68
2021/05/29 16:48:34;;;;;;;19.77;3.75;;;;;;;;;;5010940;28;20114;-67
2021/05/29 16:51:38;;;;;;;18.05;3.90;;;;;;;;;;5010247;28;20043;-66
2021/05/29 16:54:42;;;;;;;18.05;3.67;;;;;;;;;;5011174;28;20041;-67
2021/05/29 16:57:47;;;;;;;15.10;3.78;;;;;;;;;;5010838;28;20034;-67
2021/05/29 17:00:52;;;;;;;8.82;3.25;;;;;;;;;;5010874;28;20061;-67
2021/05/29 17:03:56;;;;;;;22.67;3.35;;;;;;;;;;5010768;28;20038;-67
2021/05/29 17:07:00;;;;;;;15.35;4.10;;;;;;;;;;5010870;28;20050;-66
2021/05/29 17:10:05;;;;;;;23.23;4.20;;;;;;;;;;5009689;28;20042;-66
2021/05/29 17:13:10;;;;;;;15.13;3.45;;;;;;;;;;5010471;28;20034;-68
2021/05/29 17:16:15;;;;;;;13.68;3.58;;;;;;;;;;5010192;28;20061;-67
2021/05/29 17:19:20;;;;;;;11.93;2.88;;;;;;;;;;5014513;28;20069;-67
2021/05/29 17:22:24;;;;;;;16.58;3.40;;;;;;;;;;5014144;28;20057;-67
2021/05/29 17:25:28;;;;;;;17.00;4.82;;;;;;;;;;5014266;28;20429;-78
2021/05/29 17:28:33;;;;;;;21.02;3.95;;;;;;;;;;5014511;28;20046;-75
2021/05/29 17:31:38;;;;;;;25.38;4.00;;;;;;;;;;5014315;28;20045;-75
2021/05/29 17:34:42;;;;;;;16.90;4.43;;;;;;;;;;5014498;28;20041;-75
2021/05/29 17:37:47;;;;;;;10.38;3.10;;;;;;;;;;5013841;28;20049;-74
2021/05/29 17:40:52;;;;;;;11.95;3.72;;;;;;;;;;5013992;28;20053;-75
2021/05/29 17:43:56;;;;;;;12.82;3.72;;;;;;;;;;5013897;28;20411;-74
2021/05/29 17:47:01;;;;;;;19.63;4.15;;;;;;;;;;5013908;28;20038;-74
2021/05/29 17:50:06;;;;;;;15.48;3.90;;;;;;;;;;5014334;28;20049;-75
2021/05/29 17:53:11;;;;;;;27.73;4.30;;;;;;;;;;5013210;28;20061;-75
2021/05/29 17:56:15;;;;;;;18.05;4.10;;;;;;;;;;5014172;28;20046;-74
2021/05/29 17:59:25;;;;;;;19.95;3.95;;;;;;;;;;5013556;28;20033;-75
2021/05/29 18:02:29;;;;;;;21.05;5.03;;;;;;;;;;5013374;28;20067;-75
2021/05/29 18:05:33;;;;;;;27.65;5.18;;;;;;;;;;5013863;28;20034;-75
2021/05/29 18:08:38;;;;;;;18.25;3.42;;;;;;;;;;5013742;28;20046;-75
2021/05/29 18:11:42;;;;;;;24.10;3.85;;;;;;;;;;5012590;28;20057;-74
2021/05/29 18:14:46;;;;;;;12.52;3.42;;;;;;;;;;5013624;28;20049;-75
2021/05/29 18:17:51;;;;;;;18.85;3.40;;;;;;;;;;5013297;28;20081;-74
2021/05/29 18:20:55;;;;;;;17.38;3.97;;;;;;;;;;5013185;28;20053;-76
2021/05/29 18:24:02;;;;;;;22.90;4.20;;;;;;;;;;5013424;28;20034;-75
2021/05/29 18:27:07;;;;;;;25.00;4.10;;;;;;;;;;5012976;28;20485;-74
2021/05/29 18:30:11;;;;;;;16.92;4.43;;;;;;;;;;5012681;28;20397;-74